sensor_id;sensor_type;location;lat;lon;timestamp;temperature;humidity
4826;DHT22;2427;50.934;6.776;2023-02-28T00:00:24;-0.60;1.00
4826;DHT22;2427;50.934;6.776;2023-02-28T00:02:50;-0.60;1.00
4826;DHT22;2427;50.934;6.776;2023-02-28T00:05:18;-0.60;1.00
4826;DHT22;2427;50.934;6.776;2023-02-28T00:07:44;-0.60;1.00
4826;DHT22;2427;50.934;6.776;2023-02-28T00:10:13;-0.60;1.00
4826;DHT22;2427;50.934;6.776;2023-02-28T00:12:40;-0.60;1.00
4826;DHT22;2427;50.934;6.776;2023-02-28T00:15:08;-0.70;1.00
4826;DHT22;2427;50.934;6.776;2023-02-28T00:17:34;-0.80;1.00
4826;DHT22;2427;50.934;6.776;2023-02-28T00:19:59;-0.80;1.00
4826;DHT22;2427;50.934;6.776;2023-02-28T00:22:28;-0.80;1.00
4826;DHT22;2427;50.934;6.776;2023-02-28T00:24:54;-0.80;1.00
4826;DHT22;2427;50.934;6.776;2023-02-28T00:27:19;-0.90;1.00
4826;DHT22;2427;50.934;6.776;2023-02-28T00:29:46;-1.00;1.00
4826;DHT22;2427;50.934;6.776;2023-02-28T00:32:12;-1.00;1.00
4826;DHT22;2427;50.934;6.776;2023-02-28T00:34:37;-1.00;1.00
4826;DHT22;2427;50.934;6.776;2023-02-28T00:37:08;-1.00;1.00
4826;DHT22;2427;50.934;6.776;2023-02-28T00:39:36;-1.10;1.00
4826;DHT22;2427;50.934;6.776;2023-02-28T00:42:02;-1.10;1.00
4826;DHT22;2427;50.934;6.776;2023-02-28T00:44:29;-1.00;1.00
4826;DHT22;2427;50.934;6.776;2023-02-28T00:46:55;-1.10;1.00
4826;DHT22;2427;50.934;6.776;2023-02-28T00:49:21;-1.10;1.00
4826;DHT22;2427;50.934;6.776;2023-02-28T00:51:47;-1.20;1.00
4826;DHT22;2427;50.934;6.776;2023-02-28T00:54:13;-1.20;1.00
4826;DHT22;2427;50.934;6.776;2023-02-28T00:56:38;-1.20;1.00
4826;DHT22;2427;50.934;6.776;2023-02-28T00:59:04;-1.20;1.00
4826;DHT22;2427;50.934;6.776;2023-02-28T01:01:30;-1.20;1.00
4826;DHT22;2427;50.934;6.776;2023-02-28T01:03:55;-1.30;1.00
4826;DHT22;2427;50.934;6.776;2023-02-28T01:06:21;-1.30;1.00
4826;DHT22;2427;50.934;6.776;2023-02-28T01:08:48;-1.40;1.00
4826;DHT22;2427;50.934;6.776;2023-02-28T01:11:16;-1.40;1.00
4826;DHT22;2427;50.934;6.776;2023-02-28T01:13:44;-1.40;1.00
4826;DHT22;2427;50.934;6.776;2023-02-28T01:16:10;-1.50;15.60
4826;DHT22;2427;50.934;6.776;2023-02-28T01:18:36;-1.50;24.50
4826;DHT22;2427;50.934;6.776;2023-02-28T01:21:06;-1.50;28.00
4826;DHT22;2427;50.934;6.776;2023-02-28T01:23:33;-1.50;35.20
4826;DHT22;2427;50.934;6.776;2023-02-28T01:26:05;-1.50;30.90
4826;DHT22;2427;50.934;6.776;2023-02-28T01:28:31;-1.60;57.10
4826;DHT22;2427;50.934;6.776;2023-02-28T01:30:56;-1.60;45.50
4826;DHT22;2427;50.934;6.776;2023-02-28T01:33:22;-1.60;70.20
4826;DHT22;2427;50.934;6.776;2023-02-28T01:35:48;-1.60;88.00
4826;DHT22;2427;50.934;6.776;2023-02-28T01:38:14;-1.60;80.90
4826;DHT22;2427;50.934;6.776;2023-02-28T01:40:39;-1.70;93.90
4826;DHT22;2427;50.934;6.776;2023-02-28T01:43:20;-1.70;99.90
4826;DHT22;2427;50.934;6.776;2023-02-28T01:45:46;-1.70;99.90
4826;DHT22;2427;50.934;6.776;2023-02-28T01:48:11;-1.70;94.00
4826;DHT22;2427;50.934;6.776;2023-02-28T01:50:40;-1.70;99.90
4826;DHT22;2427;50.934;6.776;2023-02-28T01:53:10;-1.80;99.60
4826;DHT22;2427;50.934;6.776;2023-02-28T01:55:39;-1.80;99.90
4826;DHT22;2427;50.934;6.776;2023-02-28T01:58:07;-1.80;99.90
4826;DHT22;2427;50.934;6.776;2023-02-28T02:11:07;-1.80;99.90
4826;DHT22;2427;50.934;6.776;2023-02-28T02:18:54;-1.70;99.90
4826;DHT22;2427;50.934;6.776;2023-02-28T02:21:53;-1.70;99.90
4826;DHT22;2427;50.934;6.776;2023-02-28T02:27:27;-1.70;42.70
4826;DHT22;2427;50.934;6.776;2023-02-28T02:35:54;-1.70;62.50
4826;DHT22;2427;50.934;6.776;2023-02-28T02:38:53;-1.70;29.40
4826;DHT22;2427;50.934;6.776;2023-02-28T02:41:52;-1.70;50.30
4826;DHT22;2427;50.934;6.776;2023-02-28T02:44:26;-1.70;26.50
4826;DHT22;2427;50.934;6.776;2023-02-28T02:47:08;-1.80;27.50
4826;DHT22;2427;50.934;6.776;2023-02-28T02:49:37;-1.80;38.30
4826;DHT22;2427;50.934;6.776;2023-02-28T02:52:06;-1.80;65.90
4826;DHT22;2427;50.934;6.776;2023-02-28T02:54:38;-1.80;62.00
4826;DHT22;2427;50.934;6.776;2023-02-28T02:57:11;-1.80;74.80
4826;DHT22;2427;50.934;6.776;2023-02-28T02:59:39;-1.80;70.80
4826;DHT22;2427;50.934;6.776;2023-02-28T03:02:08;-1.80;68.50
4826;DHT22;2427;50.934;6.776;2023-02-28T03:04:45;-1.80;49.30
4826;DHT22;2427;50.934;6.776;2023-02-28T03:07:11;-1.80;29.50
4826;DHT22;2427;50.934;6.776;2023-02-28T03:09:37;-1.80;19.50
4826;DHT22;2427;50.934;6.776;2023-02-28T03:12:03;-1.80;22.10
4826;DHT22;2427;50.934;6.776;2023-02-28T03:20:35;-1.90;1.00
4826;DHT22;2427;50.934;6.776;2023-02-28T03:23:23;-1.90;1.00
4826;DHT22;2427;50.934;6.776;2023-02-28T03:26:01;-1.90;1.00
4826;DHT22;2427;50.934;6.776;2023-02-28T03:28:31;-1.90;1.00
4826;DHT22;2427;50.934;6.776;2023-02-28T03:31:07;-1.90;1.00
4826;DHT22;2427;50.934;6.776;2023-02-28T03:36:27;-2.10;1.00
4826;DHT22;2427;50.934;6.776;2023-02-28T03:39:00;-2.10;6.10
4826;DHT22;2427;50.934;6.776;2023-02-28T03:41:53;-2.20;27.30
4826;DHT22;2427;50.934;6.776;2023-02-28T03:44:24;-2.20;68.20
4826;DHT22;2427;50.934;6.776;2023-02-28T03:47:07;-2.20;99.90
4826;DHT22;2427;50.934;6.776;2023-02-28T03:49:51;-2.20;99.90
4826;DHT22;2427;50.934;6.776;2023-02-28T03:52:20;-2.30;99.90
4826;DHT22;2427;50.934;6.776;2023-02-28T03:54:51;-2.30;99.90
4826;DHT22;2427;50.934;6.776;2023-02-28T03:58:11;-2.30;99.90
4826;DHT22;2427;50.934;6.776;2023-02-28T04:00:21;-2.30;99.90
4826;DHT22;2427;50.934;6.776;2023-02-28T04:02:48;-2.40;99.90
4826;DHT22;2427;50.934;6.776;2023-02-28T04:05:18;-2.30;99.90
4826;DHT22;2427;50.934;6.776;2023-02-28T04:07:44;-2.30;99.90
4826;DHT22;2427;50.934;6.776;2023-02-28T04:10:11;-2.40;99.90
4826;DHT22;2427;50.934;6.776;2023-02-28T04:12:37;-2.30;99.90
4826;DHT22;2427;50.934;6.776;2023-02-28T04:15:03;-2.30;99.90
4826;DHT22;2427;50.934;6.776;2023-02-28T04:17:29;-2.30;99.90
4826;DHT22;2427;50.934;6.776;2023-02-28T04:19:54;-2.30;99.90
4826;DHT22;2427;50.934;6.776;2023-02-28T04:22:22;-2.30;99.90
4826;DHT22;2427;50.934;6.776;2023-02-28T04:24:47;-2.30;99.90
4826;DHT22;2427;50.934;6.776;2023-02-28T04:27:13;-2.30;99.90
4826;DHT22;2427;50.934;6.776;2023-02-28T04:29:41;-2.30;99.90
4826;DHT22;2427;50.934;6.776;2023-02-28T04:32:10;-2.30;99.90
4826;DHT22;2427;50.934;6.776;2023-02-28T04:34:36;-2.40;99.90
4826;DHT22;2427;50.934;6.776;2023-02-28T04:37:02;-2.40;99.90
4826;DHT22;2427;50.934;6.776;2023-02-28T04:39:28;-2.40;99.90
4826;DHT22;2427;50.934;6.776;2023-02-28T04:41:55;-2.40;99.90
4826;DHT22;2427;50.934;6.776;2023-02-28T04:44:21;-2.40;99.90
4826;DHT22;2427;50.934;6.776;2023-02-28T04:46:48;-2.50;99.90
4826;DHT22;2427;50.934;6.776;2023-02-28T04:49:13;-2.50;99.90
4826;DHT22;2427;50.934;6.776;2023-02-28T04:51:39;-2.50;99.90
4826;DHT22;2427;50.934;6.776;2023-02-28T04:54:05;-2.50;99.90
4826;DHT22;2427;50.934;6.776;2023-02-28T04:56:31;-2.50;99.90
4826;DHT22;2427;50.934;6.776;2023-02-28T04:58:56;-2.50;99.90
4826;DHT22;2427;50.934;6.776;2023-02-28T05:01:31;-2.50;99.90
4826;DHT22;2427;50.934;6.776;2023-02-28T05:03:59;-2.50;99.90
4826;DHT22;2427;50.934;6.776;2023-02-28T05:06:28;-2.40;99.90
4826;DHT22;2427;50.934;6.776;2023-02-28T05:08:54;-2.30;99.90
4826;DHT22;2427;50.934;6.776;2023-02-28T05:11:24;-2.30;99.90
4826;DHT22;2427;50.934;6.776;2023-02-28T05:13:51;-2.40;99.90
4826;DHT22;2427;50.934;6.776;2023-02-28T05:16:17;-2.50;99.90
4826;DHT22;2427;50.934;6.776;2023-02-28T05:18:43;-2.50;99.90
4826;DHT22;2427;50.934;6.776;2023-02-28T05:21:39;-2.50;99.90
4826;DHT22;2427;50.934;6.776;2023-02-28T05:24:09;-2.60;99.90
4826;DHT22;2427;50.934;6.776;2023-02-28T05:26:37;-2.60;99.90
4826;DHT22;2427;50.934;6.776;2023-02-28T05:29:03;-2.60;99.90
4826;DHT22;2427;50.934;6.776;2023-02-28T05:31:28;-2.70;99.90
4826;DHT22;2427;50.934;6.776;2023-02-28T05:33:54;-2.70;99.90
4826;DHT22;2427;50.934;6.776;2023-02-28T05:36:21;-2.70;99.90
4826;DHT22;2427;50.934;6.776;2023-02-28T05:38:48;-2.70;99.90
4826;DHT22;2427;50.934;6.776;2023-02-28T05:41:14;-2.70;99.90
4826;DHT22;2427;50.934;6.776;2023-02-28T05:43:40;-2.70;99.90
4826;DHT22;2427;50.934;6.776;2023-02-28T05:46:06;-2.80;99.90
4826;DHT22;2427;50.934;6.776;2023-02-28T05:48:33;-2.80;99.90
4826;DHT22;2427;50.934;6.776;2023-02-28T05:50:59;-2.80;99.90
4826;DHT22;2427;50.934;6.776;2023-02-28T05:53:25;-2.80;99.90
4826;DHT22;2427;50.934;6.776;2023-02-28T05:55:51;-2.90;99.90
4826;DHT22;2427;50.934;6.776;2023-02-28T05:58:17;-2.90;99.90
4826;DHT22;2427;50.934;6.776;2023-02-28T06:00:43;-2.90;99.90
4826;DHT22;2427;50.934;6.776;2023-02-28T06:03:08;-2.90;99.90
4826;DHT22;2427;50.934;6.776;2023-02-28T06:05:34;-2.90;99.90
4826;DHT22;2427;50.934;6.776;2023-02-28T06:07:59;-2.90;99.90
4826;DHT22;2427;50.934;6.776;2023-02-28T06:10:25;-2.90;99.90
4826;DHT22;2427;50.934;6.776;2023-02-28T06:12:50;-2.90;99.90
4826;DHT22;2427;50.934;6.776;2023-02-28T06:15:16;-2.90;1.00
4826;DHT22;2427;50.934;6.776;2023-02-28T06:17:43;-2.90;99.90
4826;DHT22;2427;50.934;6.776;2023-02-28T06:20:10;-2.90;99.90
4826;DHT22;2427;50.934;6.776;2023-02-28T06:22:38;-2.90;99.90
4826;DHT22;2427;50.934;6.776;2023-02-28T06:25:05;-2.90;1.00
4826;DHT22;2427;50.934;6.776;2023-02-28T06:27:32;-2.90;99.90
4826;DHT22;2427;50.934;6.776;2023-02-28T06:29:58;-2.90;99.90
4826;DHT22;2427;50.934;6.776;2023-02-28T06:32:23;-2.90;99.90
4826;DHT22;2427;50.934;6.776;2023-02-28T06:34:49;-2.80;99.90
4826;DHT22;2427;50.934;6.776;2023-02-28T06:37:16;-2.80;99.90
4826;DHT22;2427;50.934;6.776;2023-02-28T06:39:42;-2.80;99.90
4826;DHT22;2427;50.934;6.776;2023-02-28T06:42:08;-2.80;99.90
4826;DHT22;2427;50.934;6.776;2023-02-28T06:44:33;-2.80;99.90
4826;DHT22;2427;50.934;6.776;2023-02-28T06:47:01;-2.70;99.90
4826;DHT22;2427;50.934;6.776;2023-02-28T06:49:29;-2.60;99.90
4826;DHT22;2427;50.934;6.776;2023-02-28T06:51:54;-2.60;99.90
4826;DHT22;2427;50.934;6.776;2023-02-28T06:54:20;-2.50;99.90
4826;DHT22;2427;50.934;6.776;2023-02-28T06:56:45;-2.50;99.90
4826;DHT22;2427;50.934;6.776;2023-02-28T06:59:12;-2.40;99.90
4826;DHT22;2427;50.934;6.776;2023-02-28T07:01:38;-2.30;96.60
4826;DHT22;2427;50.934;6.776;2023-02-28T07:04:05;-2.30;11.60
4826;DHT22;2427;50.934;6.776;2023-02-28T07:06:31;-2.20;1.00
4826;DHT22;2427;50.934;6.776;2023-02-28T07:08:57;-2.10;1.00
4826;DHT22;2427;50.934;6.776;2023-02-28T07:11:25;-2.00;1.00
4826;DHT22;2427;50.934;6.776;2023-02-28T07:13:54;-1.90;1.00
4826;DHT22;2427;50.934;6.776;2023-02-28T07:16:20;-1.90;1.00
4826;DHT22;2427;50.934;6.776;2023-02-28T07:18:47;-1.80;1.00
4826;DHT22;2427;50.934;6.776;2023-02-28T07:21:12;-1.70;1.00
4826;DHT22;2427;50.934;6.776;2023-02-28T07:23:39;-1.60;1.00
4826;DHT22;2427;50.934;6.776;2023-02-28T07:26:05;-1.60;1.00
4826;DHT22;2427;50.934;6.776;2023-02-28T07:28:32;-1.50;1.00
4826;DHT22;2427;50.934;6.776;2023-02-28T07:31:03;-1.40;1.00
4826;DHT22;2427;50.934;6.776;2023-02-28T07:33:29;-1.30;1.00
4826;DHT22;2427;50.934;6.776;2023-02-28T07:36:00;-1.20;1.00
4826;DHT22;2427;50.934;6.776;2023-02-28T07:38:26;-1.00;99.90
4826;DHT22;2427;50.934;6.776;2023-02-28T07:40:52;-0.90;99.90
4826;DHT22;2427;50.934;6.776;2023-02-28T07:43:17;-0.70;99.90
4826;DHT22;2427;50.934;6.776;2023-02-28T07:45:43;-0.60;99.90
4826;DHT22;2427;50.934;6.776;2023-02-28T07:48:09;-0.40;99.90
4826;DHT22;2427;50.934;6.776;2023-02-28T07:50:35;-0.30;99.90
4826;DHT22;2427;50.934;6.776;2023-02-28T07:53:00;-0.20;99.90
4826;DHT22;2427;50.934;6.776;2023-02-28T07:55:26;-0.10;99.90
4826;DHT22;2427;50.934;6.776;2023-02-28T07:57:56;0.00;99.90
4826;DHT22;2427;50.934;6.776;2023-02-28T08:00:22;0.10;99.90
4826;DHT22;2427;50.934;6.776;2023-02-28T08:02:48;0.20;99.90
4826;DHT22;2427;50.934;6.776;2023-02-28T08:05:14;0.20;99.90
4826;DHT22;2427;50.934;6.776;2023-02-28T08:07:40;0.30;99.90
4826;DHT22;2427;50.934;6.776;2023-02-28T08:10:06;0.50;99.90
4826;DHT22;2427;50.934;6.776;2023-02-28T08:12:32;0.60;99.90
4826;DHT22;2427;50.934;6.776;2023-02-28T08:14:58;0.60;99.90
4826;DHT22;2427;50.934;6.776;2023-02-28T08:17:23;0.70;99.90
4826;DHT22;2427;50.934;6.776;2023-02-28T08:19:49;0.80;99.90
4826;DHT22;2427;50.934;6.776;2023-02-28T08:22:14;0.90;99.90
4826;DHT22;2427;50.934;6.776;2023-02-28T08:24:41;0.90;99.90
4826;DHT22;2427;50.934;6.776;2023-02-28T08:27:08;1.10;99.90
4826;DHT22;2427;50.934;6.776;2023-02-28T08:29:33;1.10;99.90
4826;DHT22;2427;50.934;6.776;2023-02-28T08:31:59;1.20;99.90
4826;DHT22;2427;50.934;6.776;2023-02-28T08:34:24;1.30;99.90
4826;DHT22;2427;50.934;6.776;2023-02-28T08:36:50;1.40;99.90
4826;DHT22;2427;50.934;6.776;2023-02-28T08:39:15;1.50;99.90
4826;DHT22;2427;50.934;6.776;2023-02-28T08:41:42;1.60;99.90
4826;DHT22;2427;50.934;6.776;2023-02-28T08:44:07;1.60;99.90
4826;DHT22;2427;50.934;6.776;2023-02-28T08:46:33;1.70;99.90
4826;DHT22;2427;50.934;6.776;2023-02-28T08:48:59;1.80;99.90
4826;DHT22;2427;50.934;6.776;2023-02-28T08:51:26;1.90;99.90
4826;DHT22;2427;50.934;6.776;2023-02-28T08:53:54;1.90;99.90
4826;DHT22;2427;50.934;6.776;2023-02-28T08:56:20;2.00;99.90
4826;DHT22;2427;50.934;6.776;2023-02-28T08:58:48;2.00;99.90
4826;DHT22;2427;50.934;6.776;2023-02-28T09:01:16;2.10;99.90
4826;DHT22;2427;50.934;6.776;2023-02-28T09:03:43;2.20;99.90
4826;DHT22;2427;50.934;6.776;2023-02-28T09:06:10;2.40;99.90
4826;DHT22;2427;50.934;6.776;2023-02-28T09:08:36;2.50;99.90
4826;DHT22;2427;50.934;6.776;2023-02-28T09:11:02;2.40;99.90
4826;DHT22;2427;50.934;6.776;2023-02-28T09:13:29;2.40;99.90
4826;DHT22;2427;50.934;6.776;2023-02-28T09:15:58;2.50;99.90
4826;DHT22;2427;50.934;6.776;2023-02-28T09:18:24;2.60;99.90
4826;DHT22;2427;50.934;6.776;2023-02-28T09:20:49;2.60;99.90
4826;DHT22;2427;50.934;6.776;2023-02-28T09:23:15;2.60;99.90
4826;DHT22;2427;50.934;6.776;2023-02-28T09:25:51;2.70;99.90
4826;DHT22;2427;50.934;6.776;2023-02-28T09:28:17;2.70;99.90
4826;DHT22;2427;50.934;6.776;2023-02-28T09:30:49;2.70;99.90
4826;DHT22;2427;50.934;6.776;2023-02-28T09:33:15;2.70;99.90
4826;DHT22;2427;50.934;6.776;2023-02-28T09:35:41;2.60;99.90
4826;DHT22;2427;50.934;6.776;2023-02-28T09:38:08;2.70;99.90
4826;DHT22;2427;50.934;6.776;2023-02-28T09:40:47;2.70;99.90
4826;DHT22;2427;50.934;6.776;2023-02-28T09:43:15;2.70;99.90
4826;DHT22;2427;50.934;6.776;2023-02-28T09:45:57;2.80;99.90
4826;DHT22;2427;50.934;6.776;2023-02-28T09:48:33;2.80;99.90
4826;DHT22;2427;50.934;6.776;2023-02-28T09:51:14;2.90;99.90
4826;DHT22;2427;50.934;6.776;2023-02-28T09:53:41;2.90;99.90
4826;DHT22;2427;50.934;6.776;2023-02-28T09:56:11;3.10;99.90
4826;DHT22;2427;50.934;6.776;2023-02-28T10:06:51;3.50;99.90
4826;DHT22;2427;50.934;6.776;2023-02-28T10:09:30;3.70;99.90
4826;DHT22;2427;50.934;6.776;2023-02-28T10:12:00;3.80;99.90
4826;DHT22;2427;50.934;6.776;2023-02-28T10:14:29;3.80;99.90
4826;DHT22;2427;50.934;6.776;2023-02-28T10:17:13;3.80;99.90
4826;DHT22;2427;50.934;6.776;2023-02-28T10:20:02;3.80;99.90
4826;DHT22;2427;50.934;6.776;2023-02-28T10:22:38;3.80;99.90
4826;DHT22;2427;50.934;6.776;2023-02-28T10:25:17;4.00;99.90
4826;DHT22;2427;50.934;6.776;2023-02-28T10:27:43;4.00;99.90
4826;DHT22;2427;50.934;6.776;2023-02-28T10:30:11;4.10;99.90
4826;DHT22;2427;50.934;6.776;2023-02-28T10:32:39;4.30;99.90
4826;DHT22;2427;50.934;6.776;2023-02-28T10:35:15;4.40;99.90
4826;DHT22;2427;50.934;6.776;2023-02-28T10:37:44;4.40;99.90
4826;DHT22;2427;50.934;6.776;2023-02-28T10:43:04;4.70;99.90
4826;DHT22;2427;50.934;6.776;2023-02-28T10:45:32;4.70;99.90
4826;DHT22;2427;50.934;6.776;2023-02-28T10:48:29;4.80;99.90
4826;DHT22;2427;50.934;6.776;2023-02-28T10:50:53;4.80;99.90
4826;DHT22;2427;50.934;6.776;2023-02-28T10:55:57;4.90;99.90
4826;DHT22;2427;50.934;6.776;2023-02-28T10:58:26;5.00;99.90
4826;DHT22;2427;50.934;6.776;2023-02-28T11:00:53;5.00;99.90
4826;DHT22;2427;50.934;6.776;2023-02-28T11:03:30;5.10;99.90
4826;DHT22;2427;50.934;6.776;2023-02-28T11:05:57;5.10;99.90
4826;DHT22;2427;50.934;6.776;2023-02-28T11:08:23;5.30;99.90
4826;DHT22;2427;50.934;6.776;2023-02-28T11:10:58;5.40;99.90
4826;DHT22;2427;50.934;6.776;2023-02-28T11:13:33;5.60;99.90
4826;DHT22;2427;50.934;6.776;2023-02-28T11:16:02;5.70;99.90
4826;DHT22;2427;50.934;6.776;2023-02-28T11:18:31;5.70;99.90
4826;DHT22;2427;50.934;6.776;2023-02-28T11:21:00;5.90;99.90
4826;DHT22;2427;50.934;6.776;2023-02-28T11:23:29;6.10;99.90
4826;DHT22;2427;50.934;6.776;2023-02-28T11:25:58;6.10;99.90
4826;DHT22;2427;50.934;6.776;2023-02-28T11:28:36;6.20;99.90
4826;DHT22;2427;50.934;6.776;2023-02-28T11:33:51;6.40;99.90
4826;DHT22;2427;50.934;6.776;2023-02-28T11:36:26;6.60;99.90
4826;DHT22;2427;50.934;6.776;2023-02-28T11:38:55;6.90;99.90
4826;DHT22;2427;50.934;6.776;2023-02-28T11:41:51;7.00;99.90
4826;DHT22;2427;50.934;6.776;2023-02-28T11:44:30;7.00;99.90
4826;DHT22;2427;50.934;6.776;2023-02-28T11:47:07;7.20;99.90
4826;DHT22;2427;50.934;6.776;2023-02-28T11:52:42;7.70;99.90
4826;DHT22;2427;50.934;6.776;2023-02-28T11:55:32;8.00;99.90
4826;DHT22;2427;50.934;6.776;2023-02-28T12:01:01;8.70;99.90
4826;DHT22;2427;50.934;6.776;2023-02-28T12:03:39;8.70;99.90
4826;DHT22;2427;50.934;6.776;2023-02-28T12:06:22;8.80;99.90
4826;DHT22;2427;50.934;6.776;2023-02-28T12:09:02;9.10;99.90
4826;DHT22;2427;50.934;6.776;2023-02-28T12:14:42;9.20;99.90
4826;DHT22;2427;50.934;6.776;2023-02-28T12:17:33;9.20;99.90
4826;DHT22;2427;50.934;6.776;2023-02-28T12:20:45;9.30;99.90
4826;DHT22;2427;50.934;6.776;2023-02-28T12:28:34;9.40;99.90
4826;DHT22;2427;50.934;6.776;2023-02-28T12:31:09;10.40;99.90
4826;DHT22;2427;50.934;6.776;2023-02-28T12:33:43;12.10;99.90
4826;DHT22;2427;50.934;6.776;2023-02-28T12:36:12;13.70;99.90
4826;DHT22;2427;50.934;6.776;2023-02-28T12:38:51;14.60;99.90
4826;DHT22;2427;50.934;6.776;2023-02-28T12:41:40;15.90;99.90
4826;DHT22;2427;50.934;6.776;2023-02-28T12:44:12;16.10;99.90
4826;DHT22;2427;50.934;6.776;2023-02-28T12:46:43;16.10;99.90
4826;DHT22;2427;50.934;6.776;2023-02-28T12:49:13;16.70;99.90
4826;DHT22;2427;50.934;6.776;2023-02-28T12:51:41;16.40;99.90
4826;DHT22;2427;50.934;6.776;2023-02-28T12:55:02;16.00;99.90
4826;DHT22;2427;50.934;6.776;2023-02-28T12:57:12;15.90;99.90
4826;DHT22;2427;50.934;6.776;2023-02-28T12:59:53;15.20;99.90
4826;DHT22;2427;50.934;6.776;2023-02-28T13:11:03;20.20;99.90
4826;DHT22;2427;50.934;6.776;2023-02-28T13:13:30;21.00;99.90
4826;DHT22;2427;50.934;6.776;2023-02-28T13:16:08;22.10;99.90
4826;DHT22;2427;50.934;6.776;2023-02-28T13:18:43;22.40;99.90
4826;DHT22;2427;50.934;6.776;2023-02-28T13:21:23;22.60;99.90
4826;DHT22;2427;50.934;6.776;2023-02-28T13:26:23;23.50;99.90
4826;DHT22;2427;50.934;6.776;2023-02-28T13:31:14;24.00;99.90
4826;DHT22;2427;50.934;6.776;2023-02-28T13:38:51;24.40;99.90
4826;DHT22;2427;50.934;6.776;2023-02-28T13:44:06;24.30;99.90
4826;DHT22;2427;50.934;6.776;2023-02-28T13:51:52;24.10;99.90
4826;DHT22;2427;50.934;6.776;2023-02-28T14:08:59;22.60;87.60
4826;DHT22;2427;50.934;6.776;2023-02-28T14:11:31;22.60;86.40
4826;DHT22;2427;50.934;6.776;2023-02-28T14:13:57;24.10;91.60
4826;DHT22;2427;50.934;6.776;2023-02-28T14:16:25;24.90;92.20
4826;DHT22;2427;50.934;6.776;2023-02-28T14:18:58;25.30;92.00
4826;DHT22;2427;50.934;6.776;2023-02-28T14:21:36;25.50;90.80
4826;DHT22;2427;50.934;6.776;2023-02-28T14:26:53;24.50;80.00
4826;DHT22;2427;50.934;6.776;2023-02-28T14:32:22;23.70;73.00
4826;DHT22;2427;50.934;6.776;2023-02-28T14:35:16;23.60;71.10
4826;DHT22;2427;50.934;6.776;2023-02-28T14:37:44;24.40;72.70
4826;DHT22;2427;50.934;6.776;2023-02-28T14:40:20;24.70;72.10
4826;DHT22;2427;50.934;6.776;2023-02-28T14:42:57;24.70;69.80
4826;DHT22;2427;50.934;6.776;2023-02-28T14:45:23;25.00;69.70
4826;DHT22;2427;50.934;6.776;2023-02-28T14:47:50;25.20;69.50
4826;DHT22;2427;50.934;6.776;2023-02-28T14:50:22;24.70;64.00
4826;DHT22;2427;50.934;6.776;2023-02-28T14:52:52;24.20;59.50
4826;DHT22;2427;50.934;6.776;2023-02-28T14:55:19;23.30;54.10
4826;DHT22;2427;50.934;6.776;2023-02-28T14:57:55;23.30;52.00
4826;DHT22;2427;50.934;6.776;2023-02-28T15:00:29;23.00;50.50
4826;DHT22;2427;50.934;6.776;2023-02-28T15:02:57;23.10;50.30
4826;DHT22;2427;50.934;6.776;2023-02-28T15:08:15;20.90;37.30
4826;DHT22;2427;50.934;6.776;2023-02-28T15:10:50;18.10;24.90
4826;DHT22;2427;50.934;6.776;2023-02-28T15:13:17;16.10;16.70
4826;DHT22;2427;50.934;6.776;2023-02-28T15:18:22;13.30;6.20
4826;DHT22;2427;50.934;6.776;2023-02-28T15:20:50;12.20;2.40
4826;DHT22;2427;50.934;6.776;2023-02-28T15:23:17;11.50;1.00
4826;DHT22;2427;50.934;6.776;2023-02-28T15:25:44;10.80;1.00
4826;DHT22;2427;50.934;6.776;2023-02-28T15:28:17;10.30;1.00
4826;DHT22;2427;50.934;6.776;2023-02-28T15:30:52;9.90;1.00
4826;DHT22;2427;50.934;6.776;2023-02-28T15:35:44;9.20;1.00
4826;DHT22;2427;50.934;6.776;2023-02-28T15:38:24;8.90;1.00
4826;DHT22;2427;50.934;6.776;2023-02-28T15:40:53;8.60;1.00
4826;DHT22;2427;50.934;6.776;2023-02-28T15:43:30;8.50;1.00
4826;DHT22;2427;50.934;6.776;2023-02-28T15:46:11;8.30;1.00
4826;DHT22;2427;50.934;6.776;2023-02-28T15:48:56;8.20;1.00
4826;DHT22;2427;50.934;6.776;2023-02-28T15:51:34;8.00;1.00
4826;DHT22;2427;50.934;6.776;2023-02-28T15:54:23;8.10;1.00
4826;DHT22;2427;50.934;6.776;2023-02-28T15:56:55;8.10;1.00
4826;DHT22;2427;50.934;6.776;2023-02-28T15:59:28;7.90;1.00
4826;DHT22;2427;50.934;6.776;2023-02-28T16:04:36;7.50;1.20
4826;DHT22;2427;50.934;6.776;2023-02-28T16:07:04;7.30;1.40
4826;DHT22;2427;50.934;6.776;2023-02-28T16:09:30;7.20;10.20
4826;DHT22;2427;50.934;6.776;2023-02-28T16:11:59;7.10;1.60
4826;DHT22;2427;50.934;6.776;2023-02-28T16:14:30;6.90;1.60
4826;DHT22;2427;50.934;6.776;2023-02-28T16:17:03;6.80;2.20
4826;DHT22;2427;50.934;6.776;2023-02-28T16:19:29;6.70;2.60
4826;DHT22;2427;50.934;6.776;2023-02-28T16:21:56;6.60;3.10
4826;DHT22;2427;50.934;6.776;2023-02-28T16:24:22;6.60;4.10
4826;DHT22;2427;50.934;6.776;2023-02-28T16:26:50;6.50;4.40
4826;DHT22;2427;50.934;6.776;2023-02-28T16:29:29;6.40;5.10
4826;DHT22;2427;50.934;6.776;2023-02-28T16:31:56;6.40;6.30
4826;DHT22;2427;50.934;6.776;2023-02-28T16:34:25;6.30;6.90
4826;DHT22;2427;50.934;6.776;2023-02-28T16:36:51;6.20;7.20
4826;DHT22;2427;50.934;6.776;2023-02-28T16:39:17;6.10;8.10
4826;DHT22;2427;50.934;6.776;2023-02-28T16:41:44;6.00;8.20
4826;DHT22;2427;50.934;6.776;2023-02-28T16:44:30;5.90;9.00
4826;DHT22;2427;50.934;6.776;2023-02-28T16:46:56;5.80;9.00
4826;DHT22;2427;50.934;6.776;2023-02-28T16:49:22;5.70;9.40
4826;DHT22;2427;50.934;6.776;2023-02-28T16:51:47;5.60;9.90
4826;DHT22;2427;50.934;6.776;2023-02-28T16:54:13;5.50;10.60
4826;DHT22;2427;50.934;6.776;2023-02-28T16:56:44;5.40;10.80
4826;DHT22;2427;50.934;6.776;2023-02-28T16:59:10;5.20;10.80
4826;DHT22;2427;50.934;6.776;2023-02-28T17:01:36;5.10;12.10
4826;DHT22;2427;50.934;6.776;2023-02-28T17:04:02;5.00;13.00
4826;DHT22;2427;50.934;6.776;2023-02-28T17:06:29;4.90;13.00
4826;DHT22;2427;50.934;6.776;2023-02-28T17:08:56;4.80;14.60
4826;DHT22;2427;50.934;6.776;2023-02-28T17:11:22;4.70;15.10
4826;DHT22;2427;50.934;6.776;2023-02-28T17:13:47;4.50;15.40
4826;DHT22;2427;50.934;6.776;2023-02-28T17:16:30;4.50;17.00
4826;DHT22;2427;50.934;6.776;2023-02-28T17:19:02;4.40;17.00
4826;DHT22;2427;50.934;6.776;2023-02-28T17:21:28;4.30;17.40
4826;DHT22;2427;50.934;6.776;2023-02-28T17:23:54;4.20;17.80
4826;DHT22;2427;50.934;6.776;2023-02-28T17:26:21;4.10;18.60
4826;DHT22;2427;50.934;6.776;2023-02-28T17:28:50;4.00;19.00
4826;DHT22;2427;50.934;6.776;2023-02-28T17:31:16;3.90;19.70
4826;DHT22;2427;50.934;6.776;2023-02-28T17:33:42;3.80;20.90
4826;DHT22;2427;50.934;6.776;2023-02-28T17:36:16;3.70;21.50
4826;DHT22;2427;50.934;6.776;2023-02-28T17:38:43;3.70;21.80
4826;DHT22;2427;50.934;6.776;2023-02-28T17:41:10;3.60;23.00
4826;DHT22;2427;50.934;6.776;2023-02-28T17:43:36;3.50;24.10
4826;DHT22;2427;50.934;6.776;2023-02-28T17:46:02;3.40;24.90
4826;DHT22;2427;50.934;6.776;2023-02-28T17:48:27;3.40;26.20
4826;DHT22;2427;50.934;6.776;2023-02-28T17:50:53;3.30;27.80
4826;DHT22;2427;50.934;6.776;2023-02-28T17:53:19;3.30;29.70
4826;DHT22;2427;50.934;6.776;2023-02-28T17:55:48;3.30;30.60
4826;DHT22;2427;50.934;6.776;2023-02-28T17:58:14;3.30;32.10
4826;DHT22;2427;50.934;6.776;2023-02-28T18:00:40;3.20;34.00
4826;DHT22;2427;50.934;6.776;2023-02-28T18:03:05;3.10;37.50
4826;DHT22;2427;50.934;6.776;2023-02-28T18:05:31;3.10;39.60
4826;DHT22;2427;50.934;6.776;2023-02-28T18:07:57;3.10;42.20
4826;DHT22;2427;50.934;6.776;2023-02-28T18:10:22;3.00;44.90
4826;DHT22;2427;50.934;6.776;2023-02-28T18:12:50;3.00;48.80
4826;DHT22;2427;50.934;6.776;2023-02-28T18:15:17;3.00;52.60
4826;DHT22;2427;50.934;6.776;2023-02-28T18:17:46;2.90;56.10
4826;DHT22;2427;50.934;6.776;2023-02-28T18:20:12;2.90;59.00
4826;DHT22;2427;50.934;6.776;2023-02-28T18:22:38;2.90;62.90
4826;DHT22;2427;50.934;6.776;2023-02-28T18:25:06;2.80;66.80
4826;DHT22;2427;50.934;6.776;2023-02-28T18:27:34;2.80;70.80
4826;DHT22;2427;50.934;6.776;2023-02-28T18:30:00;2.80;74.30